Terminal Aerodrome Forecast
Issued by NWS Jacksonville, FL

Home | Current Version | Previous Version | Text Only | Print | Product List | Glossary On
Versions: 1 2 3 4 5 6 7 8 9 10 11 12 13 14 15 16 17 18 19 20 21 22
776
FTUS42 KJAX 201751
TAFGNV
TAF
KGNV 201751Z 2018/2118 04008G15KT P6SM SCT025 BKN035
     FM210000 05005KT P6SM FEW035 FEW250
     FM210900 04003KT P6SM FEW020 SCT250
      TEMPO 2109/2112 3SM BR
     FM211400 07008KT P6SM SCT030 SCT250=

USA.gov is the U.S. government's official web portal to all federal, state and local government web resources and services.